createdAt,value
2017-07-06T00:00:53.911Z,0
2017-07-06T00:01:54.556Z,0
2017-07-06T00:02:55.201Z,0
2017-07-06T00:03:55.845Z,0
2017-07-06T00:04:56.487Z,0
2017-07-06T00:05:57.153Z,0
2017-07-06T00:06:58.023Z,0
2017-07-06T00:07:58.668Z,0
2017-07-06T00:08:59.312Z,0
2017-07-06T00:09:59.956Z,0
2017-07-06T00:11:00.600Z,0
2017-07-06T00:12:01.244Z,0
2017-07-06T00:13:01.884Z,0
2017-07-06T00:14:02.530Z,0
2017-07-06T00:15:03.321Z,0
2017-07-06T00:16:03.964Z,0
2017-07-06T00:17:04.606Z,0
2017-07-06T00:18:09.503Z,0
2017-07-06T00:19:10.148Z,0
2017-07-06T00:20:10.795Z,0
2017-07-06T00:21:11.437Z,0
2017-07-06T00:22:12.082Z,0
2017-07-06T00:23:12.724Z,0
2017-07-06T00:24:13.568Z,0
2017-07-06T00:25:14.211Z,0
2017-07-06T00:26:14.857Z,0
2017-07-06T00:27:15.503Z,0
2017-07-06T00:28:16.147Z,0
2017-07-06T00:29:16.791Z,0
2017-07-06T00:30:17.436Z,0
2017-07-06T00:31:18.079Z,0
2017-07-06T00:32:18.920Z,0
2017-07-06T00:33:19.568Z,0
2017-07-06T00:34:20.214Z,0
2017-07-06T00:35:20.856Z,0
2017-07-06T00:36:21.501Z,0
2017-07-06T00:37:22.143Z,0
2017-07-06T00:38:22.787Z,0
2017-07-06T00:39:23.431Z,0
2017-07-06T00:40:24.274Z,0
2017-07-06T00:41:24.922Z,0
2017-07-06T00:42:25.621Z,0
2017-07-06T00:43:26.266Z,0
2017-07-06T00:44:26.909Z,0
2017-07-06T00:45:27.554Z,0
2017-07-06T00:46:28.196Z,0
2017-07-06T00:47:28.839Z,0
2017-07-06T00:48:29.634Z,0
2017-07-06T00:49:30.277Z,0
2017-07-06T00:50:30.920Z,0
2017-07-06T00:51:31.613Z,0
2017-07-06T00:52:32.258Z,0
2017-07-06T00:53:32.902Z,0
2017-07-06T00:54:33.545Z,0
2017-07-06T00:55:34.188Z,0
2017-07-06T00:56:34.830Z,0
2017-07-06T00:57:35.673Z,0
2017-07-06T00:58:36.321Z,0
2017-07-06T00:59:36.966Z,0
2017-07-06T01:00:37.603Z,0
2017-07-06T01:01:38.248Z,0
2017-07-06T01:02:38.890Z,0
2017-07-06T01:03:39.574Z,0
2017-07-06T01:04:40.182Z,0
2017-07-06T01:05:40.974Z,0
2017-07-06T01:06:41.621Z,0
2017-07-06T01:07:42.262Z,0
2017-07-06T01:08:42.905Z,0
2017-07-06T01:09:43.551Z,0
2017-07-06T01:10:44.197Z,0
2017-07-06T01:11:44.844Z,0
2017-07-06T01:12:45.487Z,0
2017-07-06T01:13:46.329Z,0
2017-07-06T01:14:46.969Z,0
2017-07-06T01:15:47.664Z,0
2017-07-06T01:16:48.307Z,0
2017-07-06T01:17:48.953Z,0
2017-07-06T01:18:49.599Z,0
2017-07-06T01:19:50.245Z,0
2017-07-06T01:20:50.889Z,0
2017-07-06T01:21:51.682Z,0
2017-07-06T01:22:52.326Z,0
2017-07-06T01:23:52.972Z,0
2017-07-06T01:24:53.615Z,0
2017-07-06T01:25:54.262Z,0
2017-07-06T01:26:54.905Z,0
2017-07-06T01:27:55.548Z,0
2017-07-06T01:28:56.192Z,0
2017-07-06T01:29:57.087Z,0
2017-07-06T01:30:57.729Z,0
2017-07-06T01:31:58.375Z,0
2017-07-06T01:32:59.021Z,0
2017-07-06T01:33:59.665Z,0
2017-07-06T01:35:00.309Z,0
2017-07-06T01:36:00.951Z,0
2017-07-06T01:37:01.593Z,0
2017-07-06T01:38:02.241Z,0
2017-07-06T01:39:03.081Z,0
2017-07-06T01:40:03.726Z,0
2017-07-06T01:41:04.373Z,0
2017-07-06T01:42:05.017Z,0
2017-07-06T01:43:05.660Z,0
2017-07-06T01:44:06.303Z,0
2017-07-06T01:45:06.948Z,0
2017-07-06T01:46:07.591Z,0
2017-07-06T01:47:08.435Z,0
2017-07-06T01:48:09.085Z,0
2017-07-06T01:49:09.734Z,0
2017-07-06T01:50:10.419Z,0
2017-07-06T01:51:11.015Z,0
2017-07-06T01:52:11.657Z,0
2017-07-06T01:53:12.300Z,0
2017-07-06T01:54:12.946Z,0
2017-07-06T01:55:13.789Z,0
2017-07-06T01:56:14.433Z,0
2017-07-06T01:57:15.024Z,0
2017-07-06T01:58:15.669Z,0
2017-07-06T01:59:16.312Z,0
2017-07-06T02:00:16.956Z,0
2017-07-06T02:01:17.601Z,0
2017-07-06T02:02:18.244Z,0
2017-07-06T02:03:19.038Z,0
2017-07-06T02:04:19.681Z,0
2017-07-06T02:05:20.327Z,0
2017-07-06T02:06:20.973Z,0
2017-07-06T02:07:21.616Z,0
2017-07-06T02:08:22.258Z,0
2017-07-06T02:09:22.903Z,0
2017-07-06T02:10:23.547Z,0
2017-07-06T02:11:24.189Z,0
2017-07-06T02:12:25.033Z,0
2017-07-06T02:13:25.680Z,0
2017-07-06T02:14:26.321Z,0
2017-07-06T02:15:26.964Z,0
2017-07-06T02:16:27.608Z,0
2017-07-06T02:17:28.251Z,0
2017-07-06T02:18:28.894Z,0
2017-07-06T02:19:29.537Z,0
2017-07-06T02:20:30.381Z,0
2017-07-06T02:21:31.027Z,0
2017-07-06T02:22:31.668Z,0
2017-07-06T02:23:32.312Z,0
2017-07-06T02:24:32.954Z,0
2017-07-06T02:25:33.600Z,0
2017-07-06T02:26:34.243Z,0
2017-07-06T02:27:34.890Z,0
2017-07-06T02:28:35.733Z,0
2017-07-06T02:29:36.427Z,0
2017-07-06T02:30:37.070Z,0
2017-07-06T02:31:37.715Z,0
2017-07-06T02:32:38.359Z,0
2017-07-06T02:33:39.002Z,0
2017-07-06T02:34:39.645Z,0
2017-07-06T02:35:40.289Z,0
2017-07-06T02:36:41.237Z,0
2017-07-06T02:37:41.884Z,0
2017-07-06T02:38:42.526Z,0
2017-07-06T02:39:43.167Z,0
2017-07-06T02:40:43.810Z,0
2017-07-06T02:41:44.452Z,0
2017-07-06T02:42:45.095Z,0
2017-07-06T02:43:45.738Z,0
2017-07-06T02:44:46.584Z,0
2017-07-06T02:45:47.240Z,0
2017-07-06T02:46:47.870Z,0
2017-07-06T02:47:48.513Z,0
2017-07-06T02:48:49.159Z,0
2017-07-06T02:49:49.802Z,0
2017-07-06T02:50:50.445Z,0
2017-07-06T02:51:51.091Z,0
2017-07-06T02:52:51.735Z,0
2017-07-06T02:53:52.525Z,0
2017-07-06T02:54:53.171Z,0
2017-07-06T02:55:53.814Z,0
2017-07-06T02:56:54.461Z,0
2017-07-06T02:57:55.104Z,0
2017-07-06T02:58:55.746Z,0
2017-07-06T02:59:56.387Z,0
2017-07-06T03:00:57.031Z,0
2017-07-06T03:01:57.924Z,0
2017-07-06T03:02:58.571Z,0
2017-07-06T03:03:59.214Z,0
2017-07-06T03:04:59.860Z,0
2017-07-06T03:06:00.503Z,0
2017-07-06T03:07:01.146Z,0
2017-07-06T03:08:01.789Z,0
2017-07-06T03:09:02.432Z,0
2017-07-06T03:10:03.325Z,0
2017-07-06T03:11:03.973Z,0
2017-07-06T03:12:04.615Z,0
2017-07-06T03:13:05.260Z,0
2017-07-06T03:14:05.904Z,0
2017-07-06T03:15:06.546Z,0
2017-07-06T03:16:07.188Z,0
2017-07-06T03:17:07.833Z,0
2017-07-06T03:18:08.627Z,0
2017-07-06T03:19:09.268Z,0
2017-07-06T03:20:09.912Z,0
2017-07-06T03:21:10.554Z,0
2017-07-06T03:22:11.198Z,0
2017-07-06T03:23:11.839Z,0
2017-07-06T03:24:12.491Z,0
2017-07-06T03:25:13.130Z,0
2017-07-06T03:26:13.774Z,0
2017-07-06T03:27:14.670Z,0
2017-07-06T03:28:15.311Z,0
2017-07-06T03:29:15.954Z,0
2017-07-06T03:30:16.597Z,0
2017-07-06T03:31:17.240Z,0
2017-07-06T03:32:17.894Z,0
2017-07-06T03:33:18.531Z,0
2017-07-06T03:34:19.176Z,0
2017-07-06T03:35:20.020Z,0
2017-07-06T03:36:20.662Z,0
2017-07-06T03:37:21.306Z,0
2017-07-06T03:38:21.948Z,0
2017-07-06T03:39:22.594Z,0
2017-07-06T03:40:23.237Z,0
2017-07-06T03:41:23.880Z,0
2017-07-06T03:42:24.522Z,0
2017-07-06T03:43:25.417Z,0
2017-07-06T03:44:26.058Z,0
2017-07-06T03:45:26.701Z,0
2017-07-06T03:46:27.345Z,0
2017-07-06T03:47:27.989Z,0
2017-07-06T03:48:28.634Z,0
2017-07-06T03:49:29.278Z,0
2017-07-06T03:50:29.964Z,0
2017-07-06T03:51:30.815Z,0
2017-07-06T03:52:31.461Z,0
2017-07-06T03:53:32.099Z,0
2017-07-06T03:54:32.744Z,0
2017-07-06T03:55:33.388Z,0
2017-07-06T03:56:34.030Z,0
2017-07-06T03:57:34.674Z,0
2017-07-06T03:58:35.318Z,0
2017-07-06T03:59:36.184Z,0
2017-07-06T04:00:36.807Z,0
2017-07-06T04:01:37.453Z,0
2017-07-06T04:02:38.099Z,0
2017-07-06T04:03:38.739Z,0
2017-07-06T04:04:39.381Z,0
2017-07-06T04:05:40.026Z,0
2017-07-06T04:06:40.669Z,0
2017-07-06T04:07:41.313Z,0
2017-07-06T04:08:42.155Z,0
2017-07-06T04:09:42.799Z,0
2017-07-06T04:10:43.442Z,0
2017-07-06T04:11:44.085Z,0
2017-07-06T04:12:44.731Z,0
2017-07-06T04:13:45.373Z,0
2017-07-06T04:14:46.019Z,0
2017-07-06T04:15:46.664Z,0
2017-07-06T04:16:47.505Z,0
2017-07-06T04:17:48.148Z,0
2017-07-06T04:18:48.794Z,0
2017-07-06T04:19:49.438Z,0
2017-07-06T04:20:50.091Z,0
2017-07-06T04:21:50.780Z,0
2017-07-06T04:22:51.423Z,0
2017-07-06T04:23:52.068Z,0
2017-07-06T04:24:52.963Z,0
2017-07-06T04:25:53.609Z,0
2017-07-06T04:26:54.250Z,0
2017-07-06T04:27:54.894Z,0
2017-07-06T04:28:55.535Z,0
2017-07-06T04:29:56.180Z,0
2017-07-06T04:30:56.822Z,0
2017-07-06T04:31:57.464Z,0
2017-07-06T04:32:58.309Z,0
2017-07-06T04:33:58.951Z,0
2017-07-06T04:34:59.595Z,0
2017-07-06T04:36:00.237Z,0
2017-07-06T04:37:00.882Z,0
2017-07-06T04:38:01.524Z,0
2017-07-06T04:39:02.170Z,0
2017-07-06T04:40:02.812Z,0
2017-07-06T04:41:03.455Z,0
2017-07-06T04:42:04.297Z,0
2017-07-06T04:43:04.940Z,0
2017-07-06T04:44:05.583Z,0
2017-07-06T04:45:06.233Z,0
2017-07-06T04:46:06.873Z,0
2017-07-06T04:47:07.517Z,0
2017-07-06T04:48:08.159Z,0
2017-07-06T04:49:08.806Z,0
2017-07-06T04:50:09.744Z,0
2017-07-06T04:51:10.386Z,0
2017-07-06T04:52:11.033Z,0
2017-07-06T04:53:11.676Z,0
2017-07-06T04:54:12.320Z,0
2017-07-06T04:55:12.964Z,0
2017-07-06T04:56:13.608Z,0
2017-07-06T04:57:14.249Z,0
2017-07-06T04:58:15.144Z,0
2017-07-06T04:59:15.786Z,0
2017-07-06T05:00:16.431Z,0
2017-07-06T05:01:17.074Z,0
2017-07-06T05:02:17.719Z,0
2017-07-06T05:03:18.362Z,0
2017-07-06T05:04:19.005Z,0
2017-07-06T05:05:19.653Z,0
2017-07-06T05:06:28.948Z,0
2017-07-06T05:07:29.591Z,0
2017-07-06T05:08:30.236Z,0
2017-07-06T05:09:30.880Z,0
2017-07-06T05:10:31.523Z,0
2017-07-06T05:11:32.169Z,0
2017-07-06T05:12:32.812Z,0
2017-07-06T05:13:33.455Z,0
2017-07-06T05:14:34.306Z,0
2017-07-06T05:15:34.941Z,0
2017-07-06T05:16:35.585Z,0
2017-07-06T05:17:36.235Z,0
2017-07-06T05:18:36.876Z,0
2017-07-06T05:19:37.519Z,0
2017-07-06T05:20:38.160Z,0
2017-07-06T05:21:38.803Z,0
2017-07-06T05:22:39.696Z,0
2017-07-06T05:23:40.340Z,0
2017-07-06T05:24:40.986Z,0
2017-07-06T05:25:41.630Z,0
2017-07-06T05:26:42.274Z,0
2017-07-06T05:27:42.917Z,0
2017-07-06T05:28:43.558Z,0
2017-07-06T05:29:44.201Z,0
2017-07-06T05:30:44.844Z,0
2017-07-06T05:31:45.737Z,0
2017-07-06T05:32:46.382Z,0
2017-07-06T05:33:47.026Z,0
2017-07-06T05:34:47.669Z,0
2017-07-06T05:35:48.311Z,0
2017-07-06T05:36:48.956Z,0
2017-07-06T05:37:49.602Z,0
2017-07-06T05:38:50.242Z,0
2017-07-06T05:39:51.135Z,0
2017-07-06T05:40:51.779Z,0
2017-07-06T05:41:52.421Z,0
2017-07-06T05:42:53.064Z,0
2017-07-06T05:43:53.705Z,0
2017-07-06T05:44:54.349Z,0
2017-07-06T05:45:54.991Z,0
2017-07-06T05:46:55.636Z,0
2017-07-06T05:47:56.479Z,0
2017-07-06T05:48:57.123Z,0
2017-07-06T05:49:57.768Z,0
2017-07-06T05:50:58.412Z,0
2017-07-06T05:51:59.055Z,0
2017-07-06T05:52:59.696Z,0
2017-07-06T05:54:00.340Z,0
2017-07-06T05:55:00.987Z,0
2017-07-06T05:56:01.833Z,0
2017-07-06T05:57:02.477Z,0
2017-07-06T05:58:03.121Z,0
2017-07-06T05:59:03.765Z,0
2017-07-06T06:00:04.406Z,0
2017-07-06T06:01:05.053Z,0
2017-07-06T06:02:05.696Z,0
2017-07-06T06:03:06.340Z,0
2017-07-06T06:04:06.983Z,0
2017-07-06T06:05:07.877Z,0
2017-07-06T06:06:08.520Z,0
2017-07-06T06:07:09.162Z,0
2017-07-06T06:08:09.808Z,0
2017-07-06T06:09:10.451Z,0
2017-07-06T06:10:11.097Z,0
2017-07-06T06:11:11.739Z,0
2017-07-06T06:12:12.384Z,0
2017-07-06T06:13:13.275Z,0
2017-07-06T06:14:13.919Z,0
2017-07-06T06:15:14.564Z,0
2017-07-06T06:16:15.204Z,0
2017-07-06T06:17:15.850Z,0
2017-07-06T06:18:16.496Z,0
2017-07-06T06:19:17.139Z,0
2017-07-06T06:20:17.784Z,0
2017-07-06T06:21:18.626Z,0
2017-07-06T06:22:19.219Z,0
2017-07-06T06:23:19.863Z,0
2017-07-06T06:24:20.510Z,0
2017-07-06T06:25:21.151Z,0
2017-07-06T06:26:21.793Z,0
2017-07-06T06:27:22.438Z,0
2017-07-06T06:28:23.083Z,0
2017-07-06T06:29:23.974Z,0
2017-07-06T06:30:24.621Z,0
2017-07-06T06:31:25.264Z,0
2017-07-06T06:32:25.909Z,0
2017-07-06T06:33:26.551Z,0
2017-07-06T06:34:27.193Z,0
2017-07-06T06:35:27.836Z,0
2017-07-06T06:36:28.481Z,0
2017-07-06T06:37:29.373Z,0
2017-07-06T06:38:30.018Z,0
2017-07-06T06:39:30.663Z,0
2017-07-06T06:40:31.305Z,0
2017-07-06T06:41:31.949Z,0
2017-07-06T06:42:32.590Z,0
2017-07-06T06:43:33.233Z,0
2017-07-06T06:44:33.876Z,0
2017-07-06T06:45:34.519Z,0
2017-07-06T06:46:35.313Z,0
2017-07-06T06:47:35.963Z,0
2017-07-06T06:48:36.659Z,0
2017-07-06T06:49:37.303Z,0
2017-07-06T06:50:37.945Z,0
2017-07-06T06:51:38.588Z,0
2017-07-06T06:52:39.232Z,0
2017-07-06T06:53:39.874Z,0
2017-07-06T06:54:40.769Z,0
2017-07-06T06:55:41.415Z,0
2017-07-06T06:56:42.055Z,0
2017-07-06T06:57:42.699Z,0
2017-07-06T06:58:43.341Z,0
2017-07-06T06:59:43.986Z,0
2017-07-06T07:00:44.626Z,0
2017-07-06T07:01:45.323Z,0
2017-07-06T07:02:46.165Z,0
2017-07-06T07:03:46.815Z,0
2017-07-06T07:04:47.454Z,0
2017-07-06T07:05:48.098Z,0
2017-07-06T07:06:48.740Z,0
2017-07-06T07:07:49.384Z,0
2017-07-06T07:08:50.026Z,0
2017-07-06T07:09:50.671Z,0
2017-07-06T07:10:51.515Z,0
2017-07-06T07:11:52.160Z,0
2017-07-06T07:12:52.823Z,0
2017-07-06T07:13:53.445Z,0
2017-07-06T07:14:54.091Z,0
2017-07-06T07:15:54.734Z,0
2017-07-06T07:16:55.378Z,0
2017-07-06T07:17:56.025Z,0
2017-07-06T07:18:56.665Z,0
2017-07-06T07:19:57.509Z,0
2017-07-06T07:20:58.155Z,0
2017-07-06T07:21:58.799Z,0
2017-07-06T07:22:59.442Z,0
2017-07-06T07:24:00.092Z,0
2017-07-06T07:25:00.731Z,0
2017-07-06T07:26:01.373Z,0
2017-07-06T07:27:02.022Z,0
2017-07-06T07:28:02.865Z,0
2017-07-06T07:29:03.511Z,0
2017-07-06T07:30:04.152Z,0
2017-07-06T07:31:04.796Z,0
2017-07-06T07:32:05.442Z,0
2017-07-06T07:33:06.086Z,0
2017-07-06T07:34:06.729Z,0
2017-07-06T07:35:07.370Z,0
2017-07-06T07:36:08.216Z,0
2017-07-06T07:37:08.859Z,0
2017-07-06T07:38:09.512Z,0
2017-07-06T07:39:10.151Z,0
2017-07-06T07:40:10.792Z,0
2017-07-06T07:41:11.437Z,0
2017-07-06T07:42:12.077Z,0
2017-07-06T07:43:12.721Z,0
2017-07-06T07:44:13.563Z,0
2017-07-06T07:45:14.207Z,0
2017-07-06T07:46:14.849Z,0
2017-07-06T07:47:15.493Z,0
2017-07-06T07:48:16.135Z,0
2017-07-06T07:49:16.776Z,0
2017-07-06T07:50:17.420Z,0
2017-07-06T07:51:18.066Z,0
2017-07-06T07:52:19.111Z,0
2017-07-06T07:53:19.755Z,0
2017-07-06T07:54:20.399Z,0
2017-07-06T07:55:21.043Z,0
2017-07-06T07:56:21.686Z,0
2017-07-06T07:57:22.334Z,0
2017-07-06T07:58:22.974Z,0
2017-07-06T07:59:23.623Z,50
2017-07-06T08:00:24.268Z,50
2017-07-06T08:01:25.066Z,50
2017-07-06T08:02:25.719Z,45
2017-07-06T08:03:26.419Z,40
2017-07-06T08:04:27.068Z,40
2017-07-06T08:05:27.716Z,40
2017-07-06T08:06:28.364Z,45
2017-07-06T08:07:29.014Z,45
2017-07-06T08:08:29.662Z,45
2017-07-06T08:09:30.509Z,50
2017-07-06T08:10:31.156Z,50
2017-07-06T08:11:31.807Z,50
2017-07-06T08:12:32.452Z,50
2017-07-06T08:13:33.101Z,50
2017-07-06T08:14:33.751Z,45
2017-07-06T08:15:34.398Z,50
2017-07-06T08:16:35.046Z,50
2017-07-06T08:17:35.846Z,50
2017-07-06T08:18:36.492Z,50
2017-07-06T08:19:37.141Z,50
2017-07-06T08:20:37.789Z,50
2017-07-06T08:21:38.433Z,50
2017-07-06T08:22:39.083Z,45
2017-07-06T08:23:39.732Z,45
2017-07-06T08:24:40.380Z,45
2017-07-06T08:25:41.227Z,45
2017-07-06T08:26:41.877Z,45
2017-07-06T08:27:42.523Z,45
2017-07-06T08:28:43.173Z,45
2017-07-06T08:29:43.818Z,45
2017-07-06T08:30:44.467Z,40
2017-07-06T08:31:45.117Z,40
2017-07-06T08:32:45.763Z,45
2017-07-06T08:33:46.411Z,50
2017-07-06T08:34:47.212Z,55
2017-07-06T08:35:47.859Z,60
2017-07-06T08:36:48.505Z,60
2017-07-06T08:37:49.151Z,60
2017-07-06T08:38:49.798Z,60
2017-07-06T08:39:50.448Z,60
2017-07-06T08:40:51.096Z,60
2017-07-06T08:41:51.746Z,60
2017-07-06T08:42:52.794Z,55
2017-07-06T08:43:53.442Z,55
2017-07-06T08:44:54.093Z,60
2017-07-06T08:45:54.742Z,60
2017-07-06T08:46:55.396Z,60
2017-07-06T08:47:56.040Z,65
2017-07-06T08:48:56.689Z,70
2017-07-06T08:49:57.337Z,70
2017-07-06T08:50:58.236Z,80
2017-07-06T08:51:58.884Z,85
2017-07-06T08:52:59.530Z,85
2017-07-06T08:54:00.176Z,75
2017-07-06T08:55:00.825Z,70
2017-07-06T08:56:01.477Z,65
2017-07-06T08:57:02.119Z,60
2017-07-06T08:58:02.765Z,60
2017-07-06T08:59:03.611Z,60
2017-07-06T09:00:04.261Z,60
2017-07-06T09:01:04.906Z,60
2017-07-06T09:02:05.557Z,65
2017-07-06T09:03:06.203Z,65
2017-07-06T09:04:06.850Z,65
2017-07-06T09:05:07.501Z,65
2017-07-06T09:06:08.150Z,75
2017-07-06T09:07:08.947Z,90
2017-07-06T09:08:09.595Z,105
2017-07-06T09:09:10.243Z,125
2017-07-06T09:10:10.842Z,130
2017-07-06T09:11:11.495Z,135
2017-07-06T09:12:12.141Z,135
2017-07-06T09:13:12.790Z,135
2017-07-06T09:14:13.441Z,135
2017-07-06T09:15:14.089Z,130
2017-07-06T09:16:15.044Z,130
2017-07-06T09:17:15.751Z,130
2017-07-06T09:18:16.400Z,120
2017-07-06T09:19:17.051Z,120
2017-07-06T09:20:17.702Z,120
2017-07-06T09:21:18.356Z,115
2017-07-06T09:22:19.001Z,120
2017-07-06T09:23:19.652Z,120
2017-07-06T09:24:20.503Z,120
2017-07-06T09:25:21.152Z,115
2017-07-06T09:26:21.803Z,120
2017-07-06T09:27:22.506Z,120
2017-07-06T09:28:23.153Z,130
2017-07-06T09:29:23.804Z,140
2017-07-06T09:30:24.453Z,140
2017-07-06T09:31:25.102Z,140
2017-07-06T09:32:25.954Z,135
2017-07-06T09:33:26.608Z,140
2017-07-06T09:34:27.257Z,140
2017-07-06T09:35:27.907Z,145
2017-07-06T09:36:28.560Z,145
2017-07-06T09:37:29.210Z,150
2017-07-06T09:38:29.862Z,160
2017-07-06T09:39:30.513Z,160
2017-07-06T09:40:31.514Z,165
2017-07-06T09:41:32.221Z,160
2017-07-06T09:42:32.871Z,145
2017-07-06T09:43:33.519Z,135
2017-07-06T09:44:34.170Z,120
2017-07-06T09:45:34.821Z,110
2017-07-06T09:46:35.470Z,115
2017-07-06T09:47:36.176Z,115
2017-07-06T09:48:36.828Z,120
2017-07-06T09:49:37.779Z,115
2017-07-06T09:50:38.428Z,110
2017-07-06T09:51:39.085Z,105
2017-07-06T09:52:39.728Z,110
2017-07-06T09:53:40.380Z,110
2017-07-06T09:54:41.025Z,110
2017-07-06T09:55:41.674Z,110
2017-07-06T09:56:42.324Z,105
2017-07-06T09:57:43.122Z,95
2017-07-06T09:58:43.771Z,95
2017-07-06T09:59:44.420Z,90
2017-07-06T10:00:45.068Z,90
2017-07-06T10:01:45.718Z,90
2017-07-06T10:02:46.363Z,95
2017-07-06T10:03:47.014Z,110
2017-07-06T10:04:47.663Z,120
2017-07-06T10:05:48.514Z,120
2017-07-06T10:06:49.165Z,125
2017-07-06T10:07:49.820Z,125
2017-07-06T10:08:50.462Z,125
2017-07-06T10:09:51.110Z,130
2017-07-06T10:10:51.759Z,140
2017-07-06T10:11:52.410Z,145
2017-07-06T10:12:53.059Z,150
2017-07-06T10:13:53.909Z,160
2017-07-06T10:14:54.563Z,170
2017-07-06T10:15:55.215Z,180
2017-07-06T10:16:55.864Z,185
2017-07-06T10:17:56.514Z,185
2017-07-06T10:18:57.165Z,185
2017-07-06T10:19:57.818Z,165
2017-07-06T10:20:58.468Z,155
2017-07-06T10:21:59.269Z,150
2017-07-06T10:22:59.918Z,145
2017-07-06T10:24:00.566Z,145
2017-07-06T10:25:01.215Z,150
2017-07-06T10:26:02.014Z,150
2017-07-06T10:27:02.668Z,150
2017-07-06T10:28:03.318Z,145
2017-07-06T10:29:03.967Z,145
2017-07-06T10:30:04.617Z,145
2017-07-06T10:31:05.267Z,150
2017-07-06T10:32:05.935Z,150
2017-07-06T10:33:06.567Z,150
2017-07-06T10:34:07.417Z,155
2017-07-06T10:35:08.067Z,165
2017-07-06T10:36:08.715Z,170
2017-07-06T10:37:09.365Z,175
2017-07-06T10:38:10.015Z,165
2017-07-06T10:39:10.663Z,165
2017-07-06T10:40:11.313Z,160
2017-07-06T10:41:13.118Z,160
2017-07-06T10:42:13.913Z,170
2017-07-06T10:43:14.561Z,180
2017-07-06T10:44:15.213Z,180
2017-07-06T10:45:15.862Z,165
2017-07-06T10:46:16.512Z,160
2017-07-06T10:47:17.163Z,155
2017-07-06T10:48:17.814Z,165
2017-07-06T10:49:18.463Z,160
2017-07-06T10:50:19.315Z,160
2017-07-06T10:51:19.968Z,165
2017-07-06T10:52:20.626Z,165
2017-07-06T10:53:21.327Z,170
2017-07-06T10:54:21.979Z,180
2017-07-06T10:55:22.629Z,185
2017-07-06T10:56:23.280Z,180
2017-07-06T10:57:23.930Z,170
2017-07-06T10:58:24.582Z,180
2017-07-06T10:59:25.433Z,175
2017-07-06T11:00:26.085Z,175
2017-07-06T11:01:26.733Z,205
2017-07-06T11:02:27.384Z,205
2017-07-06T11:03:28.036Z,185
2017-07-06T11:04:28.689Z,185
2017-07-06T11:05:29.340Z,205
2017-07-06T11:06:29.992Z,185
2017-07-06T11:07:30.850Z,175
2017-07-06T11:08:31.498Z,175
2017-07-06T11:09:32.152Z,225
2017-07-06T11:10:32.801Z,225
2017-07-06T11:11:33.460Z,225
2017-07-06T11:12:34.109Z,210
2017-07-06T11:13:34.759Z,195
2017-07-06T11:14:35.409Z,190
2017-07-06T11:15:36.209Z,160
2017-07-06T11:16:36.859Z,190
2017-07-06T11:17:37.508Z,185
2017-07-06T11:18:38.160Z,190
2017-07-06T11:19:38.810Z,205
2017-07-06T11:20:39.658Z,155
2017-07-06T11:21:40.309Z,145
2017-07-06T11:22:40.958Z,220
2017-07-06T11:23:41.609Z,210
2017-07-06T11:24:42.260Z,190
2017-07-06T11:25:42.909Z,155
2017-07-06T11:26:43.561Z,190
2017-07-06T11:27:44.209Z,215
2017-07-06T11:28:45.014Z,220
2017-07-06T11:29:45.663Z,205
2017-07-06T11:30:46.318Z,205
2017-07-06T11:31:46.973Z,210
2017-07-06T11:32:47.681Z,210
2017-07-06T11:33:48.331Z,210
2017-07-06T11:34:48.980Z,210
2017-07-06T11:35:49.631Z,230
2017-07-06T11:36:50.282Z,495
2017-07-06T11:37:51.385Z,495
2017-07-06T11:38:52.037Z,885
2017-07-06T11:39:52.689Z,570
2017-07-06T11:40:53.345Z,525
2017-07-06T11:41:53.996Z,210
2017-07-06T11:42:54.648Z,530
2017-07-06T11:43:55.305Z,290
2017-07-06T11:44:55.950Z,960
2017-07-06T11:45:56.862Z,175
2017-07-06T11:46:57.509Z,220
2017-07-06T11:47:58.161Z,1025
2017-07-06T11:48:58.813Z,460
2017-07-06T11:49:59.467Z,1010
2017-07-06T11:51:00.124Z,1025
2017-07-06T11:52:00.777Z,1020
2017-07-06T11:53:01.432Z,425
2017-07-06T11:54:02.333Z,535
2017-07-06T11:55:02.990Z,1050
2017-07-06T11:56:03.643Z,1025
2017-07-06T11:57:04.299Z,1035
2017-07-06T11:58:04.950Z,1015
2017-07-06T11:59:05.604Z,1055
2017-07-06T12:00:06.257Z,1085
2017-07-06T12:01:06.912Z,1075
2017-07-06T12:02:07.767Z,990
2017-07-06T12:03:08.420Z,955
2017-07-06T12:04:09.078Z,955
2017-07-06T12:05:09.785Z,985
2017-07-06T12:06:10.438Z,1060
2017-07-06T12:07:11.097Z,1055
2017-07-06T12:08:11.747Z,1060
2017-07-06T12:09:12.400Z,1045
2017-07-06T12:10:13.055Z,1160
2017-07-06T12:11:13.907Z,1055
2017-07-06T12:12:14.562Z,1050
2017-07-06T12:13:15.219Z,1040
2017-07-06T12:14:15.875Z,990
2017-07-06T12:15:16.528Z,1025
2017-07-06T12:16:17.182Z,1065
2017-07-06T12:17:17.836Z,1070
2017-07-06T12:18:18.492Z,1085
2017-07-06T12:19:19.347Z,1110
2017-07-06T12:20:20.205Z,1085
2017-07-06T12:21:20.862Z,1055
2017-07-06T12:22:21.518Z,1090
2017-07-06T12:23:22.177Z,1100
2017-07-06T12:24:22.834Z,1125
2017-07-06T12:25:23.488Z,1105
2017-07-06T12:26:24.148Z,1080
2017-07-06T12:27:25.000Z,1055
2017-07-06T12:28:25.657Z,1040
2017-07-06T12:29:26.313Z,1070
2017-07-06T12:30:26.973Z,1105
2017-07-06T12:31:27.626Z,1080
2017-07-06T12:32:28.286Z,1090
2017-07-06T12:33:28.939Z,1065
2017-07-06T12:34:29.594Z,1060
2017-07-06T12:35:30.451Z,1090
2017-07-06T12:36:31.111Z,1065
2017-07-06T12:37:31.763Z,1105
2017-07-06T12:38:32.422Z,1120
2017-07-06T12:39:33.076Z,1080
2017-07-06T12:40:33.734Z,620
2017-07-06T12:41:34.387Z,245
2017-07-06T12:42:35.045Z,225
2017-07-06T12:43:35.899Z,220
2017-07-06T12:44:36.554Z,215
2017-07-06T12:45:37.218Z,215
2017-07-06T12:46:37.865Z,210
2017-07-06T12:47:38.522Z,210
2017-07-06T12:48:39.177Z,210
2017-07-06T12:49:39.830Z,215
2017-07-06T12:50:40.487Z,215
2017-07-06T12:51:41.142Z,220
2017-07-06T12:52:41.946Z,220
2017-07-06T12:53:42.601Z,225
2017-07-06T12:54:43.255Z,230
2017-07-06T12:55:43.909Z,245
2017-07-06T12:56:44.563Z,505
2017-07-06T12:57:45.221Z,940
2017-07-06T12:58:45.875Z,1075
2017-07-06T12:59:46.538Z,1075
2017-07-06T13:00:47.395Z,1060
2017-07-06T13:01:48.109Z,1065
2017-07-06T13:02:48.763Z,1065
2017-07-06T13:03:49.420Z,1050
2017-07-06T13:04:50.032Z,1060
2017-07-06T13:05:50.684Z,1045
2017-07-06T13:06:51.342Z,1020
2017-07-06T13:07:52.000Z,1050
2017-07-06T13:08:52.860Z,1080
2017-07-06T13:09:53.517Z,1070
2017-07-06T13:10:54.178Z,1085
2017-07-06T13:11:54.835Z,1060
2017-07-06T13:12:55.495Z,1015
2017-07-06T13:13:56.148Z,950
2017-07-06T13:14:56.804Z,890
2017-07-06T13:15:57.458Z,960
2017-07-06T13:16:58.319Z,1030
2017-07-06T13:17:58.974Z,1035
2017-07-06T13:18:59.629Z,1085
2017-07-06T13:20:00.291Z,1080
2017-07-06T13:21:01.002Z,1005
2017-07-06T13:22:01.657Z,990
2017-07-06T13:23:02.312Z,980
2017-07-06T13:24:24.504Z,1060
2017-07-06T13:25:25.313Z,1040
2017-07-06T13:26:25.968Z,1005
2017-07-06T13:27:26.625Z,945
2017-07-06T13:28:27.280Z,940
2017-07-06T13:29:27.934Z,970
2017-07-06T13:30:28.589Z,975
2017-07-06T13:31:29.246Z,980
2017-07-06T13:32:29.903Z,995
2017-07-06T13:33:30.855Z,1000
2017-07-06T13:34:31.510Z,995
2017-07-06T13:35:32.166Z,975
2017-07-06T13:36:32.819Z,930
2017-07-06T13:37:33.473Z,880
2017-07-06T13:38:34.127Z,875
2017-07-06T13:39:34.784Z,915
2017-07-06T13:40:35.437Z,345
2017-07-06T13:41:36.091Z,285
2017-07-06T13:42:36.896Z,995
2017-07-06T13:43:37.553Z,975
2017-07-06T13:44:38.209Z,940
2017-07-06T13:45:38.863Z,945
2017-07-06T13:46:39.519Z,990
2017-07-06T13:47:40.171Z,955
2017-07-06T13:48:40.829Z,920
2017-07-06T13:49:41.484Z,980
2017-07-06T13:50:42.338Z,955
2017-07-06T13:51:42.994Z,935
2017-07-06T13:52:43.648Z,920
2017-07-06T13:53:44.303Z,850
2017-07-06T13:54:44.957Z,780
2017-07-06T13:55:45.614Z,745
2017-07-06T13:56:46.271Z,715
2017-07-06T13:57:46.922Z,600
2017-07-06T13:58:47.827Z,600
2017-07-06T13:59:48.481Z,535
2017-07-06T14:00:49.137Z,485
2017-07-06T14:01:49.793Z,255
2017-07-06T14:02:50.504Z,410
2017-07-06T14:03:51.160Z,395
2017-07-06T14:04:51.813Z,305
2017-07-06T14:05:52.468Z,305
2017-07-06T14:06:53.323Z,315
2017-07-06T14:07:53.977Z,290
2017-07-06T14:08:54.632Z,315
2017-07-06T14:09:55.285Z,265
2017-07-06T14:10:55.939Z,255
2017-07-06T14:11:56.593Z,240
2017-07-06T14:15:51.404Z,320
2017-07-06T14:16:52.057Z,300
2017-07-06T14:17:52.709Z,240
2017-07-06T14:18:53.365Z,220
2017-07-06T14:19:54.018Z,280
2017-07-06T14:20:54.669Z,290
2017-07-06T14:21:55.324Z,285
2017-07-06T14:22:55.977Z,255
2017-07-06T14:23:56.833Z,315
2017-07-06T14:24:57.486Z,225
2017-07-06T14:25:58.142Z,280
2017-07-06T14:26:58.797Z,235
2017-07-06T14:27:59.450Z,280
2017-07-06T14:29:00.106Z,260
2017-07-06T14:30:00.756Z,255
2017-07-06T14:31:01.411Z,225
2017-07-06T14:32:02.263Z,225